sensor_id;sensor_type;location;lat;lon;timestamp;P1;durP1;ratioP1;P2;durP2;ratioP2
25721;SDS011;13578;53.450;15.496;2023-06-22T00:00:05;11.38;;;4.18;;
25721;SDS011;13578;53.450;15.496;2023-06-22T00:03:11;6.10;;;3.90;;
25721;SDS011;13578;53.450;15.496;2023-06-22T00:06:11;5.75;;;3.63;;
25721;SDS011;13578;53.450;15.496;2023-06-22T00:09:12;7.28;;;3.88;;
25721;SDS011;13578;53.450;15.496;2023-06-22T00:12:12;8.85;;;4.15;;
25721;SDS011;13578;53.450;15.496;2023-06-22T00:15:13;7.95;;;3.90;;
25721;SDS011;13578;53.450;15.496;2023-06-22T00:18:14;7.60;;;3.80;;
25721;SDS011;13578;53.450;15.496;2023-06-22T00:21:15;6.38;;;3.33;;
25721;SDS011;13578;53.450;15.496;2023-06-22T00:24:16;5.82;;;3.53;;
25721;SDS011;13578;53.450;15.496;2023-06-22T00:27:17;5.22;;;3.63;;
25721;SDS011;13578;53.450;15.496;2023-06-22T00:30:18;6.80;;;3.40;;
25721;SDS011;13578;53.450;15.496;2023-06-22T00:33:19;7.30;;;3.65;;
25721;SDS011;13578;53.450;15.496;2023-06-22T00:36:19;10.02;;;3.58;;
25721;SDS011;13578;53.450;15.496;2023-06-22T00:39:20;7.70;;;4.20;;
25721;SDS011;13578;53.450;15.496;2023-06-22T00:42:20;5.43;;;4.20;;
25721;SDS011;13578;53.450;15.496;2023-06-22T00:45:22;6.60;;;3.60;;
25721;SDS011;13578;53.450;15.496;2023-06-22T00:48:23;4.95;;;3.65;;
25721;SDS011;13578;53.450;15.496;2023-06-22T00:51:24;5.95;;;3.08;;
25721;SDS011;13578;53.450;15.496;2023-06-22T00:54:25;6.95;;;4.00;;
25721;SDS011;13578;53.450;15.496;2023-06-22T00:57:25;6.13;;;4.30;;
25721;SDS011;13578;53.450;15.496;2023-06-22T01:00:28;5.65;;;3.55;;
25721;SDS011;13578;53.450;15.496;2023-06-22T01:03:29;9.32;;;4.97;;
25721;SDS011;13578;53.450;15.496;2023-06-22T01:06:33;8.77;;;5.20;;
25721;SDS011;13578;53.450;15.496;2023-06-22T01:09:51;7.88;;;5.10;;
25721;SDS011;13578;53.450;15.496;2023-06-22T01:13:02;16.48;;;5.00;;
25721;SDS011;13578;53.450;15.496;2023-06-22T01:16:17;6.20;;;4.68;;
25721;SDS011;13578;53.450;15.496;2023-06-22T01:20:05;8.32;;;4.78;;
25721;SDS011;13578;53.450;15.496;2023-06-22T01:29:36;7.10;;;4.68;;
25721;SDS011;13578;53.450;15.496;2023-06-22T01:32:39;7.15;;;4.60;;
25721;SDS011;13578;53.450;15.496;2023-06-22T01:35:40;11.07;;;4.70;;
25721;SDS011;13578;53.450;15.496;2023-06-22T01:38:42;8.10;;;4.90;;
25721;SDS011;13578;53.450;15.496;2023-06-22T01:41:44;16.17;;;5.22;;
25721;SDS011;13578;53.450;15.496;2023-06-22T01:44:46;6.60;;;4.72;;
25721;SDS011;13578;53.450;15.496;2023-06-22T01:47:47;6.53;;;4.65;;
25721;SDS011;13578;53.450;15.496;2023-06-22T01:50:49;9.02;;;4.80;;
25721;SDS011;13578;53.450;15.496;2023-06-22T01:53:49;6.30;;;4.55;;
25721;SDS011;13578;53.450;15.496;2023-06-22T01:56:50;8.75;;;4.30;;
25721;SDS011;13578;53.450;15.496;2023-06-22T02:03:21;6.90;;;4.75;;
25721;SDS011;13578;53.450;15.496;2023-06-22T02:06:30;5.43;;;4.45;;
25721;SDS011;13578;53.450;15.496;2023-06-22T02:09:37;8.10;;;5.03;;
25721;SDS011;13578;53.450;15.496;2023-06-22T02:12:40;7.85;;;5.07;;
25721;SDS011;13578;53.450;15.496;2023-06-22T02:15:43;8.00;;;4.15;;
25721;SDS011;13578;53.450;15.496;2023-06-22T02:18:46;4.80;;;3.40;;
25721;SDS011;13578;53.450;15.496;2023-06-22T02:21:47;6.53;;;3.65;;
25721;SDS011;13578;53.450;15.496;2023-06-22T02:24:47;6.28;;;3.80;;
25721;SDS011;13578;53.450;15.496;2023-06-22T02:27:48;7.28;;;3.72;;
25721;SDS011;13578;53.450;15.496;2023-06-22T02:30:49;6.05;;;3.97;;
25721;SDS011;13578;53.450;15.496;2023-06-22T02:33:49;6.68;;;3.92;;
25721;SDS011;13578;53.450;15.496;2023-06-22T02:36:50;7.30;;;4.25;;
25721;SDS011;13578;53.450;15.496;2023-06-22T02:39:51;7.32;;;3.75;;
25721;SDS011;13578;53.450;15.496;2023-06-22T02:42:52;6.78;;;4.22;;
25721;SDS011;13578;53.450;15.496;2023-06-22T02:45:52;5.47;;;3.78;;
25721;SDS011;13578;53.450;15.496;2023-06-22T02:48:53;5.53;;;3.80;;
25721;SDS011;13578;53.450;15.496;2023-06-22T02:51:54;25.33;;;15.70;;
25721;SDS011;13578;53.450;15.496;2023-06-22T02:54:55;16.38;;;10.05;;
25721;SDS011;13578;53.450;15.496;2023-06-22T02:57:55;12.68;;;7.68;;
25721;SDS011;13578;53.450;15.496;2023-06-22T03:00:57;8.70;;;6.00;;
25721;SDS011;13578;53.450;15.496;2023-06-22T03:03:58;10.48;;;5.32;;
25721;SDS011;13578;53.450;15.496;2023-06-22T03:06:58;7.13;;;4.45;;
25721;SDS011;13578;53.450;15.496;2023-06-22T03:10:02;6.28;;;3.90;;
25721;SDS011;13578;53.450;15.496;2023-06-22T03:13:03;5.18;;;3.88;;
25721;SDS011;13578;53.450;15.496;2023-06-22T03:16:04;16.98;;;5.07;;
25721;SDS011;13578;53.450;15.496;2023-06-22T03:19:05;6.88;;;4.50;;
25721;SDS011;13578;53.450;15.496;2023-06-22T03:22:06;6.55;;;4.72;;
25721;SDS011;13578;53.450;15.496;2023-06-22T03:25:08;4.93;;;3.33;;
25721;SDS011;13578;53.450;15.496;2023-06-22T03:28:15;13.18;;;3.70;;
25721;SDS011;13578;53.450;15.496;2023-06-22T03:31:16;7.32;;;4.22;;
25721;SDS011;13578;53.450;15.496;2023-06-22T03:34:16;6.75;;;3.35;;
25721;SDS011;13578;53.450;15.496;2023-06-22T03:37:17;7.20;;;2.92;;
25721;SDS011;13578;53.450;15.496;2023-06-22T03:40:18;5.32;;;3.22;;
25721;SDS011;13578;53.450;15.496;2023-06-22T03:43:18;5.85;;;3.60;;
25721;SDS011;13578;53.450;15.496;2023-06-22T03:46:19;5.47;;;2.97;;
25721;SDS011;13578;53.450;15.496;2023-06-22T03:49:20;8.65;;;3.40;;
25721;SDS011;13578;53.450;15.496;2023-06-22T03:52:23;7.45;;;2.92;;
25721;SDS011;13578;53.450;15.496;2023-06-22T03:55:25;9.93;;;3.90;;
25721;SDS011;13578;53.450;15.496;2023-06-22T03:58:25;7.05;;;4.03;;
25721;SDS011;13578;53.450;15.496;2023-06-22T04:01:26;5.07;;;2.70;;
25721;SDS011;13578;53.450;15.496;2023-06-22T04:04:27;9.85;;;3.55;;
25721;SDS011;13578;53.450;15.496;2023-06-22T04:07:27;5.57;;;3.13;;
25721;SDS011;13578;53.450;15.496;2023-06-22T04:10:28;9.48;;;3.20;;
25721;SDS011;13578;53.450;15.496;2023-06-22T04:13:29;8.05;;;2.90;;
25721;SDS011;13578;53.450;15.496;2023-06-22T04:16:29;9.30;;;2.88;;
25721;SDS011;13578;53.450;15.496;2023-06-22T04:19:30;7.63;;;3.28;;
25721;SDS011;13578;53.450;15.496;2023-06-22T04:22:31;5.93;;;3.22;;
25721;SDS011;13578;53.450;15.496;2023-06-22T04:25:31;7.85;;;3.70;;
25721;SDS011;13578;53.450;15.496;2023-06-22T04:28:32;4.90;;;3.20;;
25721;SDS011;13578;53.450;15.496;2023-06-22T04:31:35;4.78;;;2.65;;
25721;SDS011;13578;53.450;15.496;2023-06-22T04:34:38;8.45;;;3.63;;
25721;SDS011;13578;53.450;15.496;2023-06-22T04:37:39;6.72;;;3.20;;
25721;SDS011;13578;53.450;15.496;2023-06-22T04:40:40;7.80;;;3.47;;
25721;SDS011;13578;53.450;15.496;2023-06-22T04:43:40;10.07;;;4.30;;
25721;SDS011;13578;53.450;15.496;2023-06-22T04:46:41;6.20;;;3.35;;
25721;SDS011;13578;53.450;15.496;2023-06-22T04:49:41;7.75;;;3.05;;
25721;SDS011;13578;53.450;15.496;2023-06-22T04:52:43;3.22;;;2.20;;
25721;SDS011;13578;53.450;15.496;2023-06-22T04:55:43;8.27;;;2.60;;
25721;SDS011;13578;53.450;15.496;2023-06-22T04:58:48;7.90;;;2.63;;
25721;SDS011;13578;53.450;15.496;2023-06-22T05:01:51;5.45;;;2.78;;
25721;SDS011;13578;53.450;15.496;2023-06-22T05:04:53;5.28;;;2.55;;
25721;SDS011;13578;53.450;15.496;2023-06-22T05:07:57;3.22;;;2.00;;
25721;SDS011;13578;53.450;15.496;2023-06-22T05:11:00;8.38;;;2.55;;
25721;SDS011;13578;53.450;15.496;2023-06-22T05:14:01;7.53;;;2.90;;
25721;SDS011;13578;53.450;15.496;2023-06-22T05:17:02;4.00;;;1.80;;
25721;SDS011;13578;53.450;15.496;2023-06-22T05:20:04;8.05;;;1.95;;
25721;SDS011;13578;53.450;15.496;2023-06-22T05:23:06;6.45;;;2.33;;
25721;SDS011;13578;53.450;15.496;2023-06-22T05:26:07;2.83;;;1.42;;
25721;SDS011;13578;53.450;15.496;2023-06-22T05:29:09;4.47;;;1.63;;
25721;SDS011;13578;53.450;15.496;2023-06-22T05:32:10;9.60;;;2.05;;
25721;SDS011;13578;53.450;15.496;2023-06-22T05:35:11;6.03;;;1.48;;
25721;SDS011;13578;53.450;15.496;2023-06-22T05:38:11;4.45;;;1.52;;
25721;SDS011;13578;53.450;15.496;2023-06-22T05:41:12;5.20;;;1.70;;
25721;SDS011;13578;53.450;15.496;2023-06-22T05:44:13;2.92;;;1.20;;
25721;SDS011;13578;53.450;15.496;2023-06-22T05:47:14;6.43;;;1.48;;
25721;SDS011;13578;53.450;15.496;2023-06-22T05:50:15;4.30;;;1.38;;
25721;SDS011;13578;53.450;15.496;2023-06-22T05:53:17;4.70;;;1.15;;
25721;SDS011;13578;53.450;15.496;2023-06-22T05:56:17;2.92;;;1.17;;
25721;SDS011;13578;53.450;15.496;2023-06-22T05:59:18;5.82;;;1.30;;
25721;SDS011;13578;53.450;15.496;2023-06-22T06:02:19;3.85;;;1.70;;
25721;SDS011;13578;53.450;15.496;2023-06-22T06:05:20;5.53;;;1.20;;
25721;SDS011;13578;53.450;15.496;2023-06-22T06:08:21;4.30;;;1.23;;
25721;SDS011;13578;53.450;15.496;2023-06-22T06:11:22;4.85;;;0.90;;
25721;SDS011;13578;53.450;15.496;2023-06-22T06:14:22;2.85;;;1.15;;
25721;SDS011;13578;53.450;15.496;2023-06-22T06:17:23;2.88;;;1.25;;
25721;SDS011;13578;53.450;15.496;2023-06-22T06:20:24;2.05;;;0.90;;
25721;SDS011;13578;53.450;15.496;2023-06-22T06:23:27;1.88;;;1.13;;
25721;SDS011;13578;53.450;15.496;2023-06-22T06:26:28;3.22;;;1.08;;
25721;SDS011;13578;53.450;15.496;2023-06-22T06:29:29;7.93;;;1.00;;
25721;SDS011;13578;53.450;15.496;2023-06-22T06:32:30;1.20;;;0.70;;
25721;SDS011;13578;53.450;15.496;2023-06-22T06:35:30;1.88;;;0.88;;
25721;SDS011;13578;53.450;15.496;2023-06-22T06:38:31;2.75;;;1.42;;
25721;SDS011;13578;53.450;15.496;2023-06-22T06:41:31;2.13;;;0.90;;
25721;SDS011;13578;53.450;15.496;2023-06-22T06:44:32;4.78;;;0.80;;
25721;SDS011;13578;53.450;15.496;2023-06-22T06:47:33;1.73;;;0.70;;
25721;SDS011;13578;53.450;15.496;2023-06-22T06:50:33;3.58;;;0.90;;
25721;SDS011;13578;53.450;15.496;2023-06-22T06:53:35;4.30;;;0.93;;
25721;SDS011;13578;53.450;15.496;2023-06-22T06:56:36;4.25;;;1.23;;
25721;SDS011;13578;53.450;15.496;2023-06-22T06:59:37;3.38;;;0.98;;
25721;SDS011;13578;53.450;15.496;2023-06-22T07:02:46;2.47;;;1.15;;
25721;SDS011;13578;53.450;15.496;2023-06-22T07:05:48;5.80;;;1.88;;
25721;SDS011;13578;53.450;15.496;2023-06-22T07:08:49;3.20;;;0.98;;
25721;SDS011;13578;53.450;15.496;2023-06-22T07:11:49;2.78;;;1.00;;
25721;SDS011;13578;53.450;15.496;2023-06-22T07:14:51;2.10;;;0.90;;
25721;SDS011;13578;53.450;15.496;2023-06-22T07:17:52;2.75;;;0.90;;
25721;SDS011;13578;53.450;15.496;2023-06-22T07:20:52;3.03;;;0.70;;
25721;SDS011;13578;53.450;15.496;2023-06-22T07:23:53;5.03;;;1.30;;
25721;SDS011;13578;53.450;15.496;2023-06-22T07:26:54;2.90;;;0.88;;
25721;SDS011;13578;53.450;15.496;2023-06-22T07:29:57;4.05;;;0.98;;
25721;SDS011;13578;53.450;15.496;2023-06-22T07:32:58;4.18;;;1.08;;
25721;SDS011;13578;53.450;15.496;2023-06-22T07:36:03;2.38;;;1.17;;
25721;SDS011;13578;53.450;15.496;2023-06-22T07:39:07;1.90;;;0.80;;
25721;SDS011;13578;53.450;15.496;2023-06-22T07:42:08;3.67;;;0.68;;
25721;SDS011;13578;53.450;15.496;2023-06-22T07:45:09;2.33;;;0.77;;
25721;SDS011;13578;53.450;15.496;2023-06-22T07:48:10;1.45;;;0.80;;
25721;SDS011;13578;53.450;15.496;2023-06-22T07:51:10;2.00;;;0.60;;
25721;SDS011;13578;53.450;15.496;2023-06-22T07:54:13;3.38;;;0.75;;
25721;SDS011;13578;53.450;15.496;2023-06-22T07:57:15;1.92;;;0.95;;
25721;SDS011;13578;53.450;15.496;2023-06-22T08:00:16;4.28;;;1.00;;
25721;SDS011;13578;53.450;15.496;2023-06-22T08:03:17;3.28;;;0.50;;
25721;SDS011;13578;53.450;15.496;2023-06-22T08:06:18;1.33;;;0.55;;
25721;SDS011;13578;53.450;15.496;2023-06-22T08:09:18;3.55;;;0.68;;
25721;SDS011;13578;53.450;15.496;2023-06-22T08:12:19;1.52;;;0.60;;
25721;SDS011;13578;53.450;15.496;2023-06-22T08:15:19;2.17;;;0.60;;
25721;SDS011;13578;53.450;15.496;2023-06-22T08:18:20;1.50;;;0.45;;
25721;SDS011;13578;53.450;15.496;2023-06-22T08:21:21;3.55;;;0.60;;
25721;SDS011;13578;53.450;15.496;2023-06-22T08:24:21;1.23;;;0.30;;
25721;SDS011;13578;53.450;15.496;2023-06-22T08:27:22;3.70;;;0.60;;
25721;SDS011;13578;53.450;15.496;2023-06-22T08:30:23;1.67;;;0.50;;
25721;SDS011;13578;53.450;15.496;2023-06-22T08:33:24;1.42;;;0.70;;
25721;SDS011;13578;53.450;15.496;2023-06-22T08:36:28;1.80;;;0.75;;
25721;SDS011;13578;53.450;15.496;2023-06-22T08:39:32;1.40;;;0.50;;
25721;SDS011;13578;53.450;15.496;2023-06-22T08:42:33;1.27;;;0.60;;
25721;SDS011;13578;53.450;15.496;2023-06-22T08:45:34;1.80;;;0.70;;
25721;SDS011;13578;53.450;15.496;2023-06-22T08:48:35;1.95;;;0.70;;
25721;SDS011;13578;53.450;15.496;2023-06-22T08:51:35;3.45;;;0.88;;
25721;SDS011;13578;53.450;15.496;2023-06-22T08:54:36;1.88;;;0.70;;
25721;SDS011;13578;53.450;15.496;2023-06-22T08:57:37;3.00;;;0.68;;
25721;SDS011;13578;53.450;15.496;2023-06-22T09:00:39;1.88;;;0.60;;
25721;SDS011;13578;53.450;15.496;2023-06-22T09:03:39;2.05;;;0.60;;
25721;SDS011;13578;53.450;15.496;2023-06-22T09:06:40;2.47;;;0.63;;
25721;SDS011;13578;53.450;15.496;2023-06-22T09:09:45;2.05;;;0.70;;
25721;SDS011;13578;53.450;15.496;2023-06-22T09:12:45;1.55;;;0.47;;
25721;SDS011;13578;53.450;15.496;2023-06-22T09:15:46;4.00;;;0.73;;
25721;SDS011;13578;53.450;15.496;2023-06-22T09:18:47;4.85;;;0.68;;
25721;SDS011;13578;53.450;15.496;2023-06-22T09:21:48;1.67;;;0.63;;
25721;SDS011;13578;53.450;15.496;2023-06-22T09:24:49;2.10;;;0.77;;
25721;SDS011;13578;53.450;15.496;2023-06-22T09:27:49;3.47;;;0.65;;
25721;SDS011;13578;53.450;15.496;2023-06-22T09:30:50;1.95;;;0.60;;
25721;SDS011;13578;53.450;15.496;2023-06-22T09:33:54;4.03;;;1.13;;
25721;SDS011;13578;53.450;15.496;2023-06-22T09:36:55;3.00;;;0.90;;
25721;SDS011;13578;53.450;15.496;2023-06-22T09:39:57;3.05;;;0.70;;
25721;SDS011;13578;53.450;15.496;2023-06-22T09:42:58;2.17;;;0.80;;
25721;SDS011;13578;53.450;15.496;2023-06-22T09:45:58;3.78;;;0.50;;
25721;SDS011;13578;53.450;15.496;2023-06-22T09:48:59;9.07;;;1.40;;
25721;SDS011;13578;53.450;15.496;2023-06-22T09:51:59;7.30;;;0.75;;
25721;SDS011;13578;53.450;15.496;2023-06-22T09:55:00;2.67;;;0.70;;
25721;SDS011;13578;53.450;15.496;2023-06-22T09:58:00;3.90;;;0.75;;
25721;SDS011;13578;53.450;15.496;2023-06-22T10:01:01;1.38;;;0.57;;
25721;SDS011;13578;53.450;15.496;2023-06-22T10:04:02;2.38;;;0.60;;
25721;SDS011;13578;53.450;15.496;2023-06-22T10:07:03;1.75;;;0.50;;
25721;SDS011;13578;53.450;15.496;2023-06-22T10:10:04;6.90;;;0.82;;
25721;SDS011;13578;53.450;15.496;2023-06-22T10:13:10;1.30;;;0.50;;
25721;SDS011;13578;53.450;15.496;2023-06-22T10:16:11;1.73;;;0.75;;
25721;SDS011;13578;53.450;15.496;2023-06-22T10:19:12;3.22;;;0.85;;
25721;SDS011;13578;53.450;15.496;2023-06-22T10:22:12;6.13;;;0.55;;
25721;SDS011;13578;53.450;15.496;2023-06-22T10:25:13;3.67;;;0.60;;
25721;SDS011;13578;53.450;15.496;2023-06-22T10:28:14;2.35;;;0.93;;
25721;SDS011;13578;53.450;15.496;2023-06-22T10:31:14;1.90;;;0.90;;
25721;SDS011;13578;53.450;15.496;2023-06-22T10:34:16;2.25;;;0.73;;
25721;SDS011;13578;53.450;15.496;2023-06-22T10:37:17;2.33;;;0.70;;
25721;SDS011;13578;53.450;15.496;2023-06-22T10:40:17;1.95;;;0.65;;
25721;SDS011;13578;53.450;15.496;2023-06-22T10:43:18;1.30;;;0.57;;
25721;SDS011;13578;53.450;15.496;2023-06-22T10:46:19;3.03;;;0.98;;
25721;SDS011;13578;53.450;15.496;2023-06-22T10:49:20;2.03;;;0.93;;
25721;SDS011;13578;53.450;15.496;2023-06-22T10:52:21;0.75;;;0.30;;
25721;SDS011;13578;53.450;15.496;2023-06-22T10:55:21;2.72;;;0.68;;
25721;SDS011;13578;53.450;15.496;2023-06-22T10:58:22;1.88;;;0.70;;
25721;SDS011;13578;53.450;15.496;2023-06-22T11:01:22;2.10;;;0.60;;
25721;SDS011;13578;53.450;15.496;2023-06-22T11:04:23;1.45;;;0.70;;
25721;SDS011;13578;53.450;15.496;2023-06-22T11:07:24;1.83;;;0.50;;
25721;SDS011;13578;53.450;15.496;2023-06-22T11:10:24;1.70;;;0.52;;
25721;SDS011;13578;53.450;15.496;2023-06-22T11:13:26;1.65;;;0.40;;
25721;SDS011;13578;53.450;15.496;2023-06-22T11:16:26;1.00;;;0.50;;
25721;SDS011;13578;53.450;15.496;2023-06-22T11:19:27;1.90;;;0.60;;
25721;SDS011;13578;53.450;15.496;2023-06-22T11:22:28;0.90;;;0.40;;
25721;SDS011;13578;53.450;15.496;2023-06-22T11:25:30;1.55;;;0.63;;
25721;SDS011;13578;53.450;15.496;2023-06-22T11:28:30;2.95;;;0.88;;
25721;SDS011;13578;53.450;15.496;2023-06-22T11:31:31;0.90;;;0.40;;
25721;SDS011;13578;53.450;15.496;2023-06-22T11:34:32;1.38;;;0.45;;
25721;SDS011;13578;53.450;15.496;2023-06-22T11:37:33;2.65;;;0.82;;
25721;SDS011;13578;53.450;15.496;2023-06-22T11:40:34;3.15;;;0.60;;
25721;SDS011;13578;53.450;15.496;2023-06-22T11:43:35;2.22;;;0.77;;
25721;SDS011;13578;53.450;15.496;2023-06-22T11:46:36;1.88;;;0.77;;
25721;SDS011;13578;53.450;15.496;2023-06-22T11:49:37;4.00;;;1.58;;
25721;SDS011;13578;53.450;15.496;2023-06-22T11:52:37;1.20;;;0.50;;
25721;SDS011;13578;53.450;15.496;2023-06-22T11:55:38;3.83;;;0.80;;
25721;SDS011;13578;53.450;15.496;2023-06-22T11:58:38;5.63;;;1.00;;
25721;SDS011;13578;53.450;15.496;2023-06-22T12:01:39;2.38;;;0.50;;
25721;SDS011;13578;53.450;15.496;2023-06-22T12:04:40;1.92;;;0.70;;
25721;SDS011;13578;53.450;15.496;2023-06-22T12:07:40;3.47;;;0.70;;
25721;SDS011;13578;53.450;15.496;2023-06-22T12:10:41;1.50;;;0.40;;
25721;SDS011;13578;53.450;15.496;2023-06-22T12:13:42;1.80;;;0.60;;
25721;SDS011;13578;53.450;15.496;2023-06-22T12:16:42;1.50;;;0.57;;
25721;SDS011;13578;53.450;15.496;2023-06-22T12:19:44;2.90;;;0.60;;
25721;SDS011;13578;53.450;15.496;2023-06-22T12:22:44;1.88;;;0.65;;
25721;SDS011;13578;53.450;15.496;2023-06-22T12:25:45;1.52;;;0.70;;
25721;SDS011;13578;53.450;15.496;2023-06-22T12:28:47;1.42;;;0.47;;
25721;SDS011;13578;53.450;15.496;2023-06-22T12:31:47;1.65;;;0.77;;
25721;SDS011;13578;53.450;15.496;2023-06-22T12:34:48;6.10;;;0.90;;
25721;SDS011;13578;53.450;15.496;2023-06-22T12:37:49;1.33;;;0.70;;
25721;SDS011;13578;53.450;15.496;2023-06-22T12:40:49;1.30;;;0.40;;
25721;SDS011;13578;53.450;15.496;2023-06-22T12:43:50;3.28;;;0.98;;
25721;SDS011;13578;53.450;15.496;2023-06-22T12:46:51;1.50;;;0.50;;
25721;SDS011;13578;53.450;15.496;2023-06-22T12:49:51;2.75;;;1.20;;
25721;SDS011;13578;53.450;15.496;2023-06-22T12:52:52;2.60;;;0.88;;
25721;SDS011;13578;53.450;15.496;2023-06-22T12:55:53;1.88;;;0.73;;
25721;SDS011;13578;53.450;15.496;2023-06-22T12:58:53;1.67;;;0.57;;
25721;SDS011;13578;53.450;15.496;2023-06-22T13:01:54;1.10;;;0.50;;
25721;SDS011;13578;53.450;15.496;2023-06-22T13:04:55;1.65;;;0.70;;
25721;SDS011;13578;53.450;15.496;2023-06-22T13:07:55;2.10;;;0.60;;
25721;SDS011;13578;53.450;15.496;2023-06-22T13:10:56;1.73;;;0.75;;
25721;SDS011;13578;53.450;15.496;2023-06-22T13:13:59;2.53;;;0.90;;
25721;SDS011;13578;53.450;15.496;2023-06-22T13:17:00;1.65;;;0.50;;
25721;SDS011;13578;53.450;15.496;2023-06-22T13:20:00;1.00;;;0.35;;
25721;SDS011;13578;53.450;15.496;2023-06-22T13:23:01;3.50;;;0.50;;
25721;SDS011;13578;53.450;15.496;2023-06-22T13:26:02;1.77;;;0.43;;
25721;SDS011;13578;53.450;15.496;2023-06-22T13:29:02;1.63;;;0.60;;
25721;SDS011;13578;53.450;15.496;2023-06-22T13:32:03;2.38;;;0.77;;
25721;SDS011;13578;53.450;15.496;2023-06-22T13:35:04;2.03;;;0.80;;
25721;SDS011;13578;53.450;15.496;2023-06-22T13:38:05;2.20;;;0.60;;
25721;SDS011;13578;53.450;15.496;2023-06-22T13:41:06;0.77;;;0.40;;
25721;SDS011;13578;53.450;15.496;2023-06-22T13:44:06;4.18;;;0.50;;
25721;SDS011;13578;53.450;15.496;2023-06-22T13:47:07;1.15;;;0.60;;
25721;SDS011;13578;53.450;15.496;2023-06-22T13:50:08;2.40;;;0.40;;
25721;SDS011;13578;53.450;15.496;2023-06-22T13:53:09;4.45;;;0.75;;
25721;SDS011;13578;53.450;15.496;2023-06-22T13:56:09;1.67;;;0.52;;
25721;SDS011;13578;53.450;15.496;2023-06-22T13:59:10;0.98;;;0.50;;
25721;SDS011;13578;53.450;15.496;2023-06-22T14:02:10;2.58;;;0.70;;
25721;SDS011;13578;53.450;15.496;2023-06-22T14:05:11;2.50;;;0.63;;
25721;SDS011;13578;53.450;15.496;2023-06-22T14:08:12;1.58;;;0.60;;
25721;SDS011;13578;53.450;15.496;2023-06-22T14:11:12;1.35;;;0.40;;
25721;SDS011;13578;53.450;15.496;2023-06-22T14:14:13;2.35;;;0.95;;
25721;SDS011;13578;53.450;15.496;2023-06-22T14:17:14;1.77;;;0.60;;
25721;SDS011;13578;53.450;15.496;2023-06-22T14:20:15;2.58;;;0.60;;
25721;SDS011;13578;53.450;15.496;2023-06-22T14:23:15;2.60;;;0.65;;
25721;SDS011;13578;53.450;15.496;2023-06-22T14:26:16;1.33;;;0.38;;
25721;SDS011;13578;53.450;15.496;2023-06-22T14:29:19;4.63;;;0.82;;
25721;SDS011;13578;53.450;15.496;2023-06-22T14:32:20;1.27;;;0.65;;
25721;SDS011;13578;53.450;15.496;2023-06-22T14:35:20;2.97;;;0.63;;
25721;SDS011;13578;53.450;15.496;2023-06-22T14:38:21;1.40;;;0.40;;
25721;SDS011;13578;53.450;15.496;2023-06-22T14:41:21;2.65;;;0.88;;
25721;SDS011;13578;53.450;15.496;2023-06-22T14:44:22;1.83;;;0.47;;
25721;SDS011;13578;53.450;15.496;2023-06-22T14:47:23;1.08;;;0.50;;
25721;SDS011;13578;53.450;15.496;2023-06-22T14:50:23;5.28;;;0.75;;
25721;SDS011;13578;53.450;15.496;2023-06-22T14:53:24;3.28;;;0.82;;
25721;SDS011;13578;53.450;15.496;2023-06-22T14:56:26;2.42;;;0.70;;
25721;SDS011;13578;53.450;15.496;2023-06-22T14:59:26;1.05;;;0.38;;
25721;SDS011;13578;53.450;15.496;2023-06-22T15:02:27;0.95;;;0.40;;
25721;SDS011;13578;53.450;15.496;2023-06-22T15:05:27;1.80;;;0.63;;
25721;SDS011;13578;53.450;15.496;2023-06-22T15:08:28;2.45;;;0.77;;
25721;SDS011;13578;53.450;15.496;2023-06-22T15:11:29;1.38;;;0.82;;
25721;SDS011;13578;53.450;15.496;2023-06-22T15:14:29;1.65;;;0.60;;
25721;SDS011;13578;53.450;15.496;2023-06-22T15:17:30;1.90;;;0.63;;
25721;SDS011;13578;53.450;15.496;2023-06-22T15:20:30;1.77;;;0.75;;
25721;SDS011;13578;53.450;15.496;2023-06-22T15:23:31;1.13;;;0.50;;
25721;SDS011;13578;53.450;15.496;2023-06-22T15:26:32;1.33;;;0.45;;
25721;SDS011;13578;53.450;15.496;2023-06-22T15:29:33;1.75;;;0.60;;
25721;SDS011;13578;53.450;15.496;2023-06-22T15:32:34;1.27;;;0.30;;
25721;SDS011;13578;53.450;15.496;2023-06-22T15:35:34;0.88;;;0.30;;
25721;SDS011;13578;53.450;15.496;2023-06-22T15:38:35;1.67;;;0.75;;
25721;SDS011;13578;53.450;15.496;2023-06-22T15:41:36;1.25;;;0.63;;
25721;SDS011;13578;53.450;15.496;2023-06-22T15:44:40;1.48;;;0.40;;
25721;SDS011;13578;53.450;15.496;2023-06-22T15:47:41;1.77;;;0.70;;
25721;SDS011;13578;53.450;15.496;2023-06-22T15:50:42;3.28;;;0.98;;
25721;SDS011;13578;53.450;15.496;2023-06-22T15:53:42;1.27;;;0.40;;
25721;SDS011;13578;53.450;15.496;2023-06-22T15:56:43;1.80;;;0.63;;
25721;SDS011;13578;53.450;15.496;2023-06-22T15:59:43;0.85;;;0.30;;
25721;SDS011;13578;53.450;15.496;2023-06-22T16:02:44;2.25;;;0.70;;
25721;SDS011;13578;53.450;15.496;2023-06-22T16:05:46;1.45;;;0.30;;
25721;SDS011;13578;53.450;15.496;2023-06-22T16:08:46;0.98;;;0.43;;
25721;SDS011;13578;53.450;15.496;2023-06-22T16:11:47;0.82;;;0.40;;
25721;SDS011;13578;53.450;15.496;2023-06-22T16:14:49;2.38;;;0.30;;
25721;SDS011;13578;53.450;15.496;2023-06-22T16:17:50;0.90;;;0.40;;
25721;SDS011;13578;53.450;15.496;2023-06-22T16:20:50;3.95;;;0.47;;
25721;SDS011;13578;53.450;15.496;2023-06-22T16:23:51;2.15;;;0.55;;
25721;SDS011;13578;53.450;15.496;2023-06-22T16:26:51;1.98;;;0.70;;
25721;SDS011;13578;53.450;15.496;2023-06-22T16:29:52;4.90;;;0.52;;
25721;SDS011;13578;53.450;15.496;2023-06-22T16:32:53;1.45;;;0.60;;
25721;SDS011;13578;53.450;15.496;2023-06-22T16:35:58;1.60;;;0.90;;
25721;SDS011;13578;53.450;15.496;2023-06-22T16:39:00;1.77;;;0.52;;
25721;SDS011;13578;53.450;15.496;2023-06-22T16:42:00;1.15;;;0.60;;
25721;SDS011;13578;53.450;15.496;2023-06-22T16:45:01;1.90;;;0.52;;
25721;SDS011;13578;53.450;15.496;2023-06-22T16:48:03;1.83;;;0.77;;
25721;SDS011;13578;53.450;15.496;2023-06-22T16:51:04;0.73;;;0.40;;
25721;SDS011;13578;53.450;15.496;2023-06-22T16:54:05;1.42;;;0.45;;
25721;SDS011;13578;53.450;15.496;2023-06-22T16:57:07;2.55;;;0.50;;
25721;SDS011;13578;53.450;15.496;2023-06-22T17:00:08;3.95;;;0.65;;
25721;SDS011;13578;53.450;15.496;2023-06-22T17:03:10;0.68;;;0.32;;
25721;SDS011;13578;53.450;15.496;2023-06-22T17:06:15;1.17;;;0.30;;
25721;SDS011;13578;53.450;15.496;2023-06-22T17:09:16;1.95;;;0.55;;
25721;SDS011;13578;53.450;15.496;2023-06-22T17:12:17;1.08;;;0.38;;
25721;SDS011;13578;53.450;15.496;2023-06-22T17:15:18;1.73;;;0.57;;
25721;SDS011;13578;53.450;15.496;2023-06-22T17:18:22;1.65;;;0.45;;
25721;SDS011;13578;53.450;15.496;2023-06-22T17:21:25;1.50;;;0.80;;
25721;SDS011;13578;53.450;15.496;2023-06-22T17:24:27;1.02;;;0.60;;
25721;SDS011;13578;53.450;15.496;2023-06-22T17:27:28;2.00;;;0.65;;
25721;SDS011;13578;53.450;15.496;2023-06-22T17:30:29;3.20;;;0.50;;
25721;SDS011;13578;53.450;15.496;2023-06-22T17:33:30;1.52;;;0.50;;
25721;SDS011;13578;53.450;15.496;2023-06-22T17:36:32;3.97;;;0.40;;
25721;SDS011;13578;53.450;15.496;2023-06-22T17:39:32;1.55;;;0.35;;
25721;SDS011;13578;53.450;15.496;2023-06-22T17:42:33;2.50;;;0.65;;
25721;SDS011;13578;53.450;15.496;2023-06-22T17:45:40;2.72;;;0.50;;
25721;SDS011;13578;53.450;15.496;2023-06-22T17:48:45;1.02;;;0.50;;
25721;SDS011;13578;53.450;15.496;2023-06-22T17:51:50;1.75;;;0.40;;
25721;SDS011;13578;53.450;15.496;2023-06-22T17:54:52;4.25;;;0.85;;
25721;SDS011;13578;53.450;15.496;2023-06-22T17:57:55;2.40;;;0.70;;
25721;SDS011;13578;53.450;15.496;2023-06-22T18:00:57;1.58;;;0.40;;
25721;SDS011;13578;53.450;15.496;2023-06-22T18:03:58;1.23;;;0.43;;